createdAt,value
2023-01-11T00:00:45.467Z,4.50
2023-01-11T00:03:13.799Z,4.50
2023-01-11T00:05:44.860Z,4.50
2023-01-11T00:08:13.790Z,4.50
2023-01-11T00:10:41.984Z,4.60
2023-01-11T00:13:09.908Z,4.60
2023-01-11T00:15:38.190Z,4.70
2023-01-11T00:18:06.427Z,4.70
2023-01-11T00:20:34.379Z,4.70
2023-01-11T00:23:03.599Z,4.70
2023-01-11T00:25:31.521Z,4.80
2023-01-11T00:27:59.437Z,4.80
2023-01-11T00:30:27.363Z,4.80
2023-01-11T00:32:57.964Z,4.90
2023-01-11T00:35:27.659Z,4.90
2023-01-11T00:37:59.275Z,4.90
2023-01-11T00:40:28.677Z,4.90
2023-01-11T00:43:14.542Z,4.90
2023-01-11T00:46:14.999Z,4.90
2023-01-11T00:48:42.906Z,4.90
2023-01-11T00:51:10.873Z,4.90
2023-01-11T00:53:38.773Z,4.90
2023-01-11T00:56:08.648Z,4.90
2023-01-11T00:58:36.560Z,4.90
2023-01-11T01:01:08.441Z,4.80
2023-01-11T01:03:36.417Z,4.80
2023-01-11T01:06:04.537Z,4.80
2023-01-11T01:08:32.488Z,4.80
2023-01-11T01:11:00.397Z,4.80
2023-01-11T01:13:47.082Z,4.80
2023-01-11T01:16:15.068Z,4.70
2023-01-11T01:18:43.033Z,4.70
2023-01-11T01:21:10.935Z,4.70
2023-01-11T01:23:38.975Z,4.70
2023-01-11T01:26:07.868Z,4.70
2023-01-11T01:28:37.178Z,4.70
2023-01-11T01:31:05.142Z,4.70
2023-01-11T01:33:33.062Z,4.60
2023-01-11T01:36:02.753Z,4.60
2023-01-11T01:38:30.963Z,4.60
2023-01-11T01:40:59.089Z,4.60
2023-01-11T01:43:50.998Z,4.60
2023-01-11T01:46:21.339Z,4.50
2023-01-11T01:48:54.747Z,4.50
2023-01-11T01:51:33.414Z,4.40
2023-01-11T01:54:09.765Z,4.40
2023-01-11T01:56:46.134Z,4.30
2023-01-11T01:59:20.673Z,4.30
2023-01-11T02:01:50.508Z,4.30
2023-01-11T02:04:25.491Z,4.20
2023-01-11T02:07:00.419Z,4.20
2023-01-11T02:09:36.350Z,4.20
2023-01-11T02:12:06.587Z,4.10
2023-01-11T02:14:38.790Z,4.10
2023-01-11T02:17:06.929Z,4.10
2023-01-11T02:19:54.518Z,4.20
2023-01-11T02:23:01.701Z,4.20
2023-01-11T02:26:03.213Z,4.20
2023-01-11T02:28:39.740Z,4.20
2023-01-11T02:31:21.037Z,4.20
2023-01-11T02:33:56.681Z,4.20
2023-01-11T02:36:39.346Z,4.20
2023-01-11T02:39:22.418Z,4.20
2023-01-11T02:42:22.406Z,4.30
2023-01-11T02:45:03.021Z,4.30
2023-01-11T02:47:51.561Z,4.40
2023-01-11T02:50:29.716Z,4.40
2023-01-11T02:53:04.026Z,4.40
2023-01-11T02:55:39.819Z,4.40
2023-01-11T02:58:12.782Z,4.40
2023-01-11T03:00:43.540Z,4.50
2023-01-11T03:03:17.414Z,4.50
2023-01-11T03:05:51.418Z,4.50
2023-01-11T03:09:03.773Z,4.50
2023-01-11T03:12:09.000Z,4.50
2023-01-11T03:14:47.402Z,4.50
2023-01-11T03:17:34.839Z,4.60
2023-01-11T03:20:10.565Z,4.60
2023-01-11T03:22:58.971Z,4.60
2023-01-11T03:25:42.088Z,4.60
2023-01-11T03:28:20.197Z,4.70
2023-01-11T03:30:58.539Z,4.70
2023-01-11T03:33:38.349Z,4.80
2023-01-11T03:36:18.591Z,4.90
2023-01-11T03:38:55.343Z,4.90
2023-01-11T03:41:27.960Z,4.90
2023-01-11T03:44:01.821Z,4.90
2023-01-11T03:46:34.612Z,4.90
2023-01-11T03:49:09.353Z,4.90
2023-01-11T03:51:44.269Z,4.90
2023-01-11T03:54:17.824Z,4.80
2023-01-11T03:56:57.219Z,4.80
2023-01-11T03:59:26.413Z,4.80
2023-01-11T04:01:54.960Z,4.70
2023-01-11T04:04:24.510Z,4.70
2023-01-11T04:06:52.483Z,4.70
2023-01-11T04:09:20.671Z,4.70
2023-01-11T04:11:48.586Z,4.70
2023-01-11T04:14:16.552Z,4.70
2023-01-11T04:16:44.429Z,4.70
2023-01-11T04:19:12.409Z,4.70
2023-01-11T04:21:43.868Z,4.80
2023-01-11T04:24:13.546Z,4.80
2023-01-11T04:26:41.687Z,4.80
2023-01-11T04:29:11.291Z,4.90
2023-01-11T04:31:39.372Z,4.90
2023-01-11T04:34:07.340Z,4.90
2023-01-11T04:36:35.431Z,4.90
2023-01-11T04:39:06.426Z,4.90
2023-01-11T04:41:51.657Z,4.80
2023-01-11T04:44:19.558Z,4.80
2023-01-11T04:46:47.435Z,4.80
2023-01-11T04:49:15.835Z,4.70
2023-01-11T04:51:43.901Z,4.60
2023-01-11T04:54:13.405Z,4.60
2023-01-11T04:56:41.308Z,4.60
2023-01-11T04:59:09.218Z,4.60
2023-01-11T05:01:37.235Z,4.60
2023-01-11T05:04:05.487Z,4.50
2023-01-11T05:06:34.058Z,4.50
2023-01-11T05:09:02.104Z,4.50
2023-01-11T05:11:31.376Z,4.50
2023-01-11T05:13:59.959Z,4.40
2023-01-11T05:16:28.022Z,4.30
2023-01-11T05:18:59.421Z,4.20
2023-01-11T05:21:33.697Z,4.20
2023-01-11T05:24:04.501Z,4.20
2023-01-11T05:26:37.499Z,4.20
2023-01-11T05:29:08.227Z,4.20
2023-01-11T05:31:38.739Z,4.20
2023-01-11T05:34:07.858Z,4.20
2023-01-11T05:36:36.987Z,4.30
2023-01-11T05:39:06.840Z,4.20
2023-01-11T05:41:37.147Z,4.20
2023-01-11T05:44:23.860Z,4.20
2023-01-11T05:46:51.820Z,4.20
2023-01-11T05:49:19.728Z,4.20
2023-01-11T05:51:47.659Z,4.20
2023-01-11T05:54:16.304Z,4.20
2023-01-11T05:56:45.546Z,4.20
2023-01-11T05:59:13.913Z,4.20
2023-01-11T06:01:42.100Z,4.20
2023-01-11T06:04:10.131Z,4.20
2023-01-11T06:06:41.001Z,4.30
2023-01-11T06:09:08.968Z,4.40
2023-01-11T06:11:36.919Z,4.40
2023-01-11T06:14:06.163Z,4.40
2023-01-11T06:16:34.086Z,4.40
2023-01-11T06:19:02.051Z,4.50
2023-01-11T06:21:29.961Z,4.50
2023-01-11T06:23:57.846Z,4.50
2023-01-11T06:26:25.790Z,4.50
2023-01-11T06:28:53.666Z,4.50
2023-01-11T06:31:22.948Z,4.50
2023-01-11T06:33:50.882Z,4.50
2023-01-11T06:36:18.804Z,4.50
2023-01-11T06:38:47.121Z,4.50
2023-01-11T06:41:15.836Z,4.50
2023-01-11T06:43:43.715Z,4.50
2023-01-11T06:46:13.804Z,4.50
2023-01-11T06:48:43.433Z,4.60
2023-01-11T06:51:12.283Z,4.60
2023-01-11T06:53:41.463Z,4.60
2023-01-11T06:56:13.103Z,4.50
2023-01-11T06:58:41.092Z,4.50
2023-01-11T07:01:09.392Z,4.50
2023-01-11T07:03:39.157Z,4.50
2023-01-11T07:06:08.675Z,4.50
2023-01-11T07:08:38.112Z,4.50
2023-01-11T07:11:06.780Z,4.50
2023-01-11T07:13:35.243Z,4.60
2023-01-11T07:16:03.261Z,4.60
2023-01-11T07:18:31.733Z,4.60
2023-01-11T07:20:59.878Z,4.70
2023-01-11T07:23:29.190Z,4.70
2023-01-11T07:25:57.255Z,4.70
2023-01-11T07:28:25.253Z,4.70
2023-01-11T07:30:59.374Z,4.70
2023-01-11T07:33:30.152Z,4.70
2023-01-11T07:36:00.663Z,4.70
2023-01-11T07:38:29.990Z,4.80
2023-01-11T07:40:57.949Z,4.90
2023-01-11T07:43:25.051Z,4.90
2023-01-11T07:45:54.245Z,5.00
2023-01-11T07:48:26.717Z,5.00
2023-01-11T07:50:55.905Z,5.00
2023-01-11T07:53:26.288Z,5.10
2023-01-11T07:55:56.358Z,5.10
2023-01-11T07:58:25.014Z,5.10
2023-01-11T08:00:53.014Z,5.10
2023-01-11T08:03:21.096Z,5.20
2023-01-11T08:05:52.416Z,5.10
2023-01-11T08:08:20.382Z,5.00
2023-01-11T08:11:08.662Z,5.10
2023-01-11T08:13:55.618Z,5.10
2023-01-11T08:16:23.942Z,5.20
2023-01-11T08:18:51.972Z,5.10
2023-01-11T08:21:21.266Z,5.10
2023-01-11T08:23:49.312Z,5.10
2023-01-11T08:26:18.004Z,5.00
2023-01-11T08:28:47.910Z,5.10
2023-01-11T08:31:16.135Z,5.10
2023-01-11T08:33:44.669Z,5.10
2023-01-11T08:36:14.296Z,5.20
2023-01-11T08:38:42.541Z,5.20
2023-01-11T08:41:11.594Z,5.30
2023-01-11T08:43:39.943Z,5.30
2023-01-11T08:46:10.712Z,5.40
2023-01-11T08:48:38.701Z,5.40
2023-01-11T08:51:06.945Z,5.50
2023-01-11T08:53:35.041Z,5.60
2023-01-11T08:56:03.025Z,5.70
2023-01-11T08:58:31.192Z,5.70
2023-01-11T09:01:00.001Z,5.80
2023-01-11T09:03:29.636Z,5.80
2023-01-11T09:05:58.002Z,5.90
2023-01-11T09:08:27.231Z,5.90
2023-01-11T09:10:56.307Z,5.90
2023-01-11T09:13:24.264Z,5.80
2023-01-11T09:15:56.400Z,5.90
2023-01-11T09:18:26.771Z,5.80
2023-01-11T09:20:56.029Z,5.90
2023-01-11T09:23:23.947Z,5.90
2023-01-11T09:25:51.861Z,6.00
2023-01-11T09:28:19.778Z,6.00
2023-01-11T09:30:47.717Z,6.00
2023-01-11T09:33:15.727Z,6.10
2023-01-11T09:35:46.151Z,6.10
2023-01-11T09:38:15.547Z,6.10
2023-01-11T09:40:59.193Z,6.10
2023-01-11T09:43:30.245Z,6.10
2023-01-11T09:46:08.697Z,6.10
2023-01-11T09:48:43.722Z,6.10
2023-01-11T09:51:15.832Z,6.10
2023-01-11T09:53:52.275Z,6.10
2023-01-11T09:56:28.909Z,6.20
2023-01-11T09:59:10.555Z,6.30
2023-01-11T10:01:46.899Z,6.30
2023-01-11T10:04:36.761Z,6.30
2023-01-11T10:07:33.815Z,6.40
2023-01-11T10:18:32.462Z,6.40
2023-01-11T10:19:39.539Z,6.50
2023-01-11T10:22:15.684Z,6.40
2023-01-11T10:24:48.842Z,6.40
2023-01-11T10:27:23.429Z,6.40
2023-01-11T10:30:12.721Z,6.30
2023-01-11T10:32:53.959Z,6.30
2023-01-11T10:35:45.741Z,6.30
2023-01-11T10:38:43.323Z,6.30
2023-01-11T10:41:26.127Z,6.40
2023-01-11T10:44:17.405Z,6.40
2023-01-11T10:46:50.735Z,6.40
2023-01-11T10:49:39.442Z,6.50
2023-01-11T10:52:23.954Z,6.50
2023-01-11T10:54:55.894Z,6.50
2023-01-11T10:58:00.370Z,6.50
2023-01-11T11:00:42.781Z,6.60
2023-01-11T11:03:48.341Z,6.60
2023-01-11T11:06:33.351Z,6.70
2023-01-11T11:09:14.119Z,6.70
2023-01-11T11:11:53.009Z,6.70
2023-01-11T11:14:30.943Z,6.70
2023-01-11T11:17:14.473Z,6.70
2023-01-11T11:19:42.763Z,6.70
2023-01-11T11:22:12.584Z,6.80
2023-01-11T11:24:46.278Z,6.80
2023-01-11T11:27:25.399Z,6.80
2023-01-11T11:29:56.989Z,6.80
2023-01-11T11:32:32.096Z,6.90
2023-01-11T11:35:00.181Z,6.90
2023-01-11T11:37:34.400Z,6.90
2023-01-11T11:40:03.370Z,7.00
2023-01-11T11:42:31.337Z,7.00
2023-01-11T11:45:16.425Z,7.10
2023-01-11T11:48:03.418Z,7.10
2023-01-11T11:50:44.291Z,7.10
2023-01-11T11:53:28.167Z,7.10
2023-01-11T11:55:56.391Z,7.10
2023-01-11T11:58:28.035Z,7.10
2023-01-11T12:00:56.076Z,7.10
2023-01-11T12:03:30.662Z,7.20
2023-01-11T12:06:02.369Z,7.20
2023-01-11T12:08:35.008Z,7.30
2023-01-11T12:11:09.033Z,7.30
2023-01-11T12:13:40.365Z,7.40
2023-01-11T12:16:21.285Z,7.40
2023-01-11T12:18:50.771Z,7.50
2023-01-11T12:21:22.893Z,7.50
2023-01-11T12:24:13.779Z,7.50
2023-01-11T12:26:57.075Z,7.50
2023-01-11T12:29:44.772Z,7.50
2023-01-11T12:32:52.351Z,7.50
2023-01-11T12:35:40.113Z,7.50
2023-01-11T12:38:24.254Z,7.50
2023-01-11T12:41:09.928Z,7.50
2023-01-11T12:44:07.214Z,7.50
2023-01-11T12:47:00.338Z,7.50
2023-01-11T12:49:46.367Z,7.50
2023-01-11T12:52:46.802Z,7.50
2023-01-11T12:55:33.990Z,7.50
2023-01-11T12:58:14.505Z,7.40
2023-01-11T13:01:23.023Z,7.40
2023-01-11T13:04:36.205Z,7.40
2023-01-11T13:07:21.629Z,7.50
2023-01-11T13:10:21.758Z,7.50
2023-01-11T13:13:01.189Z,7.50
2023-01-11T13:15:42.198Z,7.50
2023-01-11T13:18:24.077Z,7.60
2023-01-11T13:21:02.240Z,7.60
2023-01-11T13:23:42.393Z,7.60
2023-01-11T13:26:23.883Z,7.60
2023-01-11T13:29:00.556Z,7.60
2023-01-11T13:31:30.061Z,7.60
2023-01-11T13:34:05.841Z,7.70
2023-01-11T13:36:41.686Z,7.70
2023-01-11T13:39:20.369Z,7.70
2023-01-11T13:41:54.937Z,7.70
2023-01-11T13:44:28.785Z,7.70
2023-01-11T13:47:08.627Z,7.80
2023-01-11T13:49:50.012Z,7.80
2023-01-11T13:52:23.413Z,7.80
2023-01-11T13:54:59.890Z,7.90
2023-01-11T13:57:44.253Z,7.90
2023-01-11T14:00:24.825Z,7.90
2023-01-11T14:03:01.390Z,7.90
2023-01-11T14:05:41.365Z,7.90
2023-01-11T14:08:30.063Z,8.00
2023-01-11T14:11:11.660Z,8.00
2023-01-11T14:14:15.562Z,8.00
2023-01-11T14:17:07.962Z,8.10
2023-01-11T14:19:45.882Z,8.10
2023-01-11T14:22:26.429Z,8.10
2023-01-11T14:25:01.127Z,8.10
2023-01-11T14:28:25.762Z,8.10
2023-01-11T14:31:23.086Z,8.10
2023-01-11T14:34:19.234Z,8.10
2023-01-11T14:37:30.707Z,8.10
2023-01-11T14:40:36.652Z,8.10
2023-01-11T14:43:39.042Z,8.10
2023-01-11T14:46:43.270Z,8.10
2023-01-11T14:49:30.694Z,8.00
2023-01-11T14:52:03.199Z,8.10
2023-01-11T14:54:37.263Z,8.10
2023-01-11T14:57:05.228Z,8.10
2023-01-11T14:59:37.736Z,8.10
2023-01-11T15:02:24.156Z,8.20
2023-01-11T15:05:27.717Z,8.10
2023-01-11T15:08:19.365Z,8.20
2023-01-11T15:10:58.519Z,8.20
2023-01-11T15:13:35.464Z,8.10
2023-01-11T15:16:33.382Z,8.10
2023-01-11T15:19:06.879Z,8.10
2023-01-11T15:21:41.782Z,8.10
2023-01-11T15:24:25.753Z,8.00
2023-01-11T15:26:54.486Z,8.00
2023-01-11T15:29:27.852Z,8.10
2023-01-11T15:32:16.559Z,8.00
2023-01-11T15:34:48.295Z,8.00
2023-01-11T15:37:51.524Z,8.00
2023-01-11T15:40:24.334Z,8.00
2023-01-11T15:43:42.529Z,8.00
2023-01-11T15:46:56.736Z,8.00
2023-01-11T15:50:04.298Z,8.00
2023-01-11T15:53:22.391Z,8.00
2023-01-11T15:56:44.887Z,8.10
2023-01-11T15:59:41.678Z,8.10
2023-01-11T16:02:53.582Z,8.10
2023-01-11T16:05:28.448Z,8.00
2023-01-11T16:08:07.354Z,8.00
2023-01-11T16:11:03.947Z,8.00
2023-01-11T16:13:53.315Z,8.00
2023-01-11T16:16:29.091Z,8.00
2023-01-11T16:19:02.290Z,8.00
2023-01-11T16:21:36.979Z,7.90
2023-01-11T16:24:08.890Z,8.00
2023-01-11T16:26:40.792Z,8.00
2023-01-11T16:29:18.620Z,7.90
2023-01-11T16:32:00.062Z,8.00
2023-01-11T16:34:29.760Z,8.00
2023-01-11T16:36:59.439Z,8.00
2023-01-11T16:39:31.135Z,8.00
2023-01-11T16:42:05.680Z,8.00
2023-01-11T16:44:42.827Z,8.00
2023-01-11T16:47:15.040Z,8.00
2023-01-11T16:49:48.874Z,8.10
2023-01-11T16:52:39.075Z,8.10
2023-01-11T16:55:20.768Z,8.10
2023-01-11T16:57:55.424Z,8.20
2023-01-11T17:00:36.118Z,8.20
2023-01-11T17:03:24.082Z,8.20
2023-01-11T17:06:21.842Z,8.20
2023-01-11T17:08:56.339Z,8.20
2023-01-11T17:11:35.946Z,8.30
2023-01-11T17:14:37.559Z,8.20
2023-01-11T17:17:09.361Z,8.20
2023-01-11T17:19:43.000Z,8.10
2023-01-11T17:22:21.722Z,8.10
2023-01-11T17:24:55.361Z,8.10
2023-01-11T17:27:29.090Z,8.20
2023-01-11T17:29:58.939Z,8.10
2023-01-11T17:32:37.094Z,8.10
2023-01-11T17:35:14.709Z,8.10
2023-01-11T17:37:45.129Z,8.00
2023-01-11T17:40:24.996Z,8.10
2023-01-11T17:43:13.013Z,8.10
2023-01-11T17:45:41.546Z,8.00
2023-01-11T17:48:15.737Z,8.00
2023-01-11T17:50:50.129Z,8.00
2023-01-11T17:53:24.197Z,8.10
2023-01-11T17:55:56.049Z,8.10
2023-01-11T17:58:27.187Z,8.20
2023-01-11T18:01:21.085Z,8.10
2023-01-11T18:03:52.382Z,8.20
2023-01-11T18:06:27.940Z,8.10
2023-01-11T18:08:59.242Z,8.10
2023-01-11T18:11:32.723Z,8.20
2023-01-11T18:14:06.542Z,8.20
2023-01-11T18:16:35.034Z,8.10
2023-01-11T18:19:23.918Z,8.20
2023-01-11T18:21:54.017Z,8.10
2023-01-11T18:24:43.153Z,8.10
2023-01-11T18:27:29.879Z,8.10
2023-01-11T18:30:02.457Z,8.10
2023-01-11T18:32:37.952Z,8.00
2023-01-11T18:35:18.414Z,8.00
2023-01-11T18:37:46.715Z,7.90
2023-01-11T18:40:17.378Z,7.80
2023-01-11T18:42:50.067Z,7.80
2023-01-11T18:45:18.489Z,7.80
2023-01-11T18:47:46.500Z,7.80
2023-01-11T18:50:16.255Z,7.70
2023-01-11T18:52:44.940Z,7.70
2023-01-11T18:55:14.684Z,7.70
2023-01-11T18:57:42.731Z,7.60
2023-01-11T19:00:18.669Z,7.60
2023-01-11T19:02:47.072Z,7.50
2023-01-11T19:05:18.634Z,7.50
2023-01-11T19:07:46.993Z,7.40
2023-01-11T19:10:17.544Z,7.30
2023-01-11T19:12:45.877Z,7.30
2023-01-11T19:15:16.727Z,7.30
2023-01-11T19:17:44.680Z,7.30
2023-01-11T19:20:14.304Z,7.20
2023-01-11T19:22:42.678Z,7.20
2023-01-11T19:25:11.552Z,7.20
2023-01-11T19:27:39.975Z,7.20
2023-01-11T19:30:09.759Z,7.20
2023-01-11T19:32:41.473Z,7.10
2023-01-11T19:35:10.848Z,7.10
2023-01-11T19:37:39.098Z,7.00
2023-01-11T19:40:09.397Z,7.00
2023-01-11T19:42:38.291Z,7.00
2023-01-11T19:45:07.986Z,7.00
2023-01-11T19:47:36.241Z,7.00
2023-01-11T19:50:06.679Z,7.00
2023-01-11T19:52:34.705Z,7.00
2023-01-11T19:55:02.693Z,7.00
2023-01-11T19:57:30.722Z,6.90
2023-01-11T19:59:58.802Z,6.90
2023-01-11T20:02:26.719Z,6.90
2023-01-11T20:04:54.755Z,6.90
2023-01-11T20:07:24.048Z,7.00
2023-01-11T20:09:51.959Z,6.90
2023-01-11T20:12:20.119Z,7.00
2023-01-11T20:14:48.119Z,7.00
2023-01-11T20:17:20.825Z,6.90
2023-01-11T20:19:54.293Z,6.90
2023-01-11T20:22:24.795Z,6.80
2023-01-11T20:24:52.911Z,6.70
2023-01-11T20:27:20.986Z,6.70
2023-01-11T20:29:49.182Z,6.70
2023-01-11T20:32:39.153Z,6.60
2023-01-11T20:35:07.584Z,6.60
2023-01-11T20:37:36.968Z,6.50
2023-01-11T20:40:06.117Z,6.50
2023-01-11T20:42:34.208Z,6.60
2023-01-11T20:45:02.192Z,6.70
2023-01-11T20:47:30.079Z,6.70
2023-01-11T20:49:57.995Z,6.70
2023-01-11T20:52:25.919Z,6.70
2023-01-11T20:54:55.213Z,6.70
2023-01-11T20:57:25.444Z,6.70
2023-01-11T20:59:54.469Z,6.70
2023-01-11T21:02:22.385Z,6.60
2023-01-11T21:04:50.312Z,6.60
2023-01-11T21:07:18.209Z,6.70
2023-01-11T21:09:46.172Z,6.80
2023-01-11T21:12:17.544Z,6.70
2023-01-11T21:14:45.513Z,6.60
2023-01-11T21:17:15.777Z,6.60
2023-01-11T21:19:46.606Z,6.50
2023-01-11T21:22:14.515Z,6.30
2023-01-11T21:24:44.481Z,6.10
2023-01-11T21:27:14.704Z,6.10
2023-01-11T21:29:44.033Z,6.10
2023-01-11T21:32:12.108Z,6.10
2023-01-11T21:34:40.015Z,6.20
2023-01-11T21:37:07.891Z,6.20
2023-01-11T21:39:35.800Z,6.20
2023-01-11T21:42:03.898Z,6.20
2023-01-11T21:44:34.308Z,6.20
2023-01-11T21:47:06.801Z,6.20
2023-01-11T21:49:35.027Z,6.20
2023-01-11T21:52:03.160Z,6.20
2023-01-11T21:54:31.252Z,6.30
2023-01-11T21:56:59.256Z,6.30
2023-01-11T21:59:27.911Z,6.30
2023-01-11T22:01:55.868Z,6.30
2023-01-11T22:04:25.213Z,6.30
2023-01-11T22:06:56.888Z,6.30
2023-01-11T22:09:26.283Z,6.30
2023-01-11T22:11:54.340Z,6.30
2023-01-11T22:14:22.874Z,6.40
2023-01-11T22:16:51.198Z,6.50
2023-01-11T22:19:19.528Z,6.50
2023-01-11T22:21:49.132Z,6.50
2023-01-11T22:24:17.796Z,6.60
2023-01-11T22:26:45.893Z,6.60
2023-01-11T22:29:15.036Z,6.60
2023-01-11T22:31:46.866Z,6.60
2023-01-11T22:34:15.740Z,6.60
2023-01-11T22:36:44.858Z,6.60
2023-01-11T22:39:15.823Z,6.60
2023-01-11T22:41:45.856Z,6.60
2023-01-11T22:44:15.033Z,6.50
2023-01-11T22:46:43.783Z,6.50
2023-01-11T22:49:13.311Z,6.50
2023-01-11T22:51:42.126Z,6.40
2023-01-11T22:54:10.749Z,6.40
2023-01-11T22:56:40.313Z,6.40
2023-01-11T22:59:08.452Z,6.40
2023-01-11T23:01:39.055Z,6.40
2023-01-11T23:04:10.049Z,6.50
2023-01-11T23:06:41.234Z,6.50
2023-01-11T23:09:16.060Z,6.50
2023-01-11T23:12:04.375Z,6.60
2023-01-11T23:14:33.760Z,6.70
2023-01-11T23:17:05.582Z,6.80
2023-01-11T23:19:34.762Z,6.80
2023-01-11T23:22:03.180Z,6.80
2023-01-11T23:24:32.657Z,6.80
2023-01-11T23:27:04.721Z,6.90
2023-01-11T23:29:32.782Z,6.90
2023-01-11T23:32:00.939Z,7.00
2023-01-11T23:34:28.953Z,7.00
2023-01-11T23:36:56.992Z,7.00
2023-01-11T23:39:24.921Z,7.00
2023-01-11T23:42:10.523Z,7.00
2023-01-11T23:44:39.836Z,6.90
2023-01-11T23:47:22.009Z,7.00
2023-01-11T23:49:50.773Z,7.00
2023-01-11T23:52:19.855Z,7.00
2023-01-11T23:54:48.304Z,7.00
2023-01-11T23:57:17.566Z,7.10
2023-01-11T23:59:46.946Z,7.00
